sensor_id;sensor_type;location;lat;lon;timestamp;P1;durP1;ratioP1;P2;durP2;ratioP2
12120;SDS011;6124;59.460;17.908;2022-09-24T00:00:04;6.10;;;4.60;;
12120;SDS011;6124;59.460;17.908;2022-09-24T00:02:32;6.77;;;5.40;;
12120;SDS011;6124;59.460;17.908;2022-09-24T00:04:59;7.10;;;5.57;;
12120;SDS011;6124;59.460;17.908;2022-09-24T00:07:26;5.50;;;4.87;;
12120;SDS011;6124;59.460;17.908;2022-09-24T00:09:53;6.47;;;5.20;;
12120;SDS011;6124;59.460;17.908;2022-09-24T00:12:22;7.53;;;5.33;;
12120;SDS011;6124;59.460;17.908;2022-09-24T00:14:49;7.53;;;5.50;;
12120;SDS011;6124;59.460;17.908;2022-09-24T00:17:17;7.67;;;5.00;;
12120;SDS011;6124;59.460;17.908;2022-09-24T00:19:44;7.47;;;5.30;;
12120;SDS011;6124;59.460;17.908;2022-09-24T00:22:11;8.73;;;5.50;;
12120;SDS011;6124;59.460;17.908;2022-09-24T00:24:39;6.87;;;4.57;;
12120;SDS011;6124;59.460;17.908;2022-09-24T00:27:26;7.20;;;5.13;;
12120;SDS011;6124;59.460;17.908;2022-09-24T00:29:53;5.07;;;4.37;;
12120;SDS011;6124;59.460;17.908;2022-09-24T00:32:20;6.37;;;5.00;;
12120;SDS011;6124;59.460;17.908;2022-09-24T00:34:48;5.83;;;4.93;;
12120;SDS011;6124;59.460;17.908;2022-09-24T00:37:16;5.97;;;5.37;;
12120;SDS011;6124;59.460;17.908;2022-09-24T00:39:44;6.87;;;5.07;;
12120;SDS011;6124;59.460;17.908;2022-09-24T00:42:11;7.80;;;6.13;;
12120;SDS011;6124;59.460;17.908;2022-09-24T00:44:53;8.00;;;6.27;;
12120;SDS011;6124;59.460;17.908;2022-09-24T00:47:25;8.27;;;5.73;;
12120;SDS011;6124;59.460;17.908;2022-09-24T00:49:53;7.63;;;5.17;;
12120;SDS011;6124;59.460;17.908;2022-09-24T00:52:22;6.67;;;6.07;;
12120;SDS011;6124;59.460;17.908;2022-09-24T00:54:49;6.93;;;5.27;;
12120;SDS011;6124;59.460;17.908;2022-09-24T00:57:17;9.00;;;5.97;;
12120;SDS011;6124;59.460;17.908;2022-09-24T00:59:45;7.40;;;5.73;;
12120;SDS011;6124;59.460;17.908;2022-09-24T01:02:13;7.50;;;5.30;;
12120;SDS011;6124;59.460;17.908;2022-09-24T01:04:41;6.17;;;5.30;;
12120;SDS011;6124;59.460;17.908;2022-09-24T01:07:08;6.57;;;5.50;;
12120;SDS011;6124;59.460;17.908;2022-09-24T01:09:35;7.43;;;5.03;;
12120;SDS011;6124;59.460;17.908;2022-09-24T01:12:04;8.33;;;5.60;;
12120;SDS011;6124;59.460;17.908;2022-09-24T01:14:37;6.77;;;6.07;;
12120;SDS011;6124;59.460;17.908;2022-09-24T01:17:12;6.53;;;5.23;;
12120;SDS011;6124;59.460;17.908;2022-09-24T01:19:58;7.07;;;5.10;;
12120;SDS011;6124;59.460;17.908;2022-09-24T01:22:33;5.53;;;4.90;;
12120;SDS011;6124;59.460;17.908;2022-09-24T01:25:06;10.43;;;5.17;;
12120;SDS011;6124;59.460;17.908;2022-09-24T01:27:41;5.00;;;4.50;;
12120;SDS011;6124;59.460;17.908;2022-09-24T01:30:17;5.60;;;4.53;;
12120;SDS011;6124;59.460;17.908;2022-09-24T01:32:46;6.20;;;5.50;;
12120;SDS011;6124;59.460;17.908;2022-09-24T01:35:15;5.73;;;4.93;;
12120;SDS011;6124;59.460;17.908;2022-09-24T01:37:46;8.23;;;5.47;;
12120;SDS011;6124;59.460;17.908;2022-09-24T01:40:16;8.03;;;5.97;;
12120;SDS011;6124;59.460;17.908;2022-09-24T01:42:44;6.97;;;5.80;;
12120;SDS011;6124;59.460;17.908;2022-09-24T01:45:12;10.37;;;6.87;;
12120;SDS011;6124;59.460;17.908;2022-09-24T01:47:42;7.27;;;6.17;;
12120;SDS011;6124;59.460;17.908;2022-09-24T01:50:10;9.83;;;6.87;;
12120;SDS011;6124;59.460;17.908;2022-09-24T01:52:40;8.87;;;6.83;;
12120;SDS011;6124;59.460;17.908;2022-09-24T01:55:09;8.10;;;6.23;;
12120;SDS011;6124;59.460;17.908;2022-09-24T01:57:38;7.33;;;5.77;;
12120;SDS011;6124;59.460;17.908;2022-09-24T02:00:09;6.97;;;5.40;;
12120;SDS011;6124;59.460;17.908;2022-09-24T02:02:37;7.93;;;5.77;;
12120;SDS011;6124;59.460;17.908;2022-09-24T02:05:08;6.43;;;5.33;;
12120;SDS011;6124;59.460;17.908;2022-09-24T02:07:39;5.97;;;5.10;;
12120;SDS011;6124;59.460;17.908;2022-09-24T02:10:13;6.57;;;5.90;;
12120;SDS011;6124;59.460;17.908;2022-09-24T02:12:41;5.80;;;5.20;;
12120;SDS011;6124;59.460;17.908;2022-09-24T02:15:09;8.20;;;6.13;;
12120;SDS011;6124;59.460;17.908;2022-09-24T02:17:38;7.87;;;5.40;;
12120;SDS011;6124;59.460;17.908;2022-09-24T02:20:09;5.37;;;4.53;;
12120;SDS011;6124;59.460;17.908;2022-09-24T02:22:38;5.93;;;5.43;;
12120;SDS011;6124;59.460;17.908;2022-09-24T02:25:06;7.33;;;5.97;;
12120;SDS011;6124;59.460;17.908;2022-09-24T02:27:35;6.87;;;6.17;;
12120;SDS011;6124;59.460;17.908;2022-09-24T02:30:02;6.47;;;5.37;;
12120;SDS011;6124;59.460;17.908;2022-09-24T02:32:31;6.83;;;4.67;;
12120;SDS011;6124;59.460;17.908;2022-09-24T02:35:00;6.17;;;5.17;;
12120;SDS011;6124;59.460;17.908;2022-09-24T02:37:32;6.37;;;5.50;;
12120;SDS011;6124;59.460;17.908;2022-09-24T02:40:00;6.37;;;5.60;;
12120;SDS011;6124;59.460;17.908;2022-09-24T02:42:28;6.83;;;4.80;;
12120;SDS011;6124;59.460;17.908;2022-09-24T02:44:56;8.10;;;5.37;;
12120;SDS011;6124;59.460;17.908;2022-09-24T02:47:24;9.43;;;6.57;;
12120;SDS011;6124;59.460;17.908;2022-09-24T02:49:53;8.43;;;5.53;;
12120;SDS011;6124;59.460;17.908;2022-09-24T02:52:21;6.97;;;5.47;;
12120;SDS011;6124;59.460;17.908;2022-09-24T02:54:49;5.90;;;5.17;;
12120;SDS011;6124;59.460;17.908;2022-09-24T02:57:17;6.67;;;6.07;;
12120;SDS011;6124;59.460;17.908;2022-09-24T02:59:44;6.40;;;5.40;;
12120;SDS011;6124;59.460;17.908;2022-09-24T03:02:11;6.00;;;5.40;;
12120;SDS011;6124;59.460;17.908;2022-09-24T03:04:39;6.07;;;5.13;;
12120;SDS011;6124;59.460;17.908;2022-09-24T03:07:06;9.53;;;6.50;;
12120;SDS011;6124;59.460;17.908;2022-09-24T03:09:38;7.03;;;5.63;;
12120;SDS011;6124;59.460;17.908;2022-09-24T03:12:07;6.30;;;5.70;;
12120;SDS011;6124;59.460;17.908;2022-09-24T03:14:34;6.60;;;5.67;;
12120;SDS011;6124;59.460;17.908;2022-09-24T03:17:02;6.47;;;5.73;;
12120;SDS011;6124;59.460;17.908;2022-09-24T03:19:29;6.07;;;5.27;;
12120;SDS011;6124;59.460;17.908;2022-09-24T03:21:56;7.63;;;5.70;;
12120;SDS011;6124;59.460;17.908;2022-09-24T03:24:24;7.20;;;5.67;;
12120;SDS011;6124;59.460;17.908;2022-09-24T03:26:51;5.43;;;4.83;;
12120;SDS011;6124;59.460;17.908;2022-09-24T03:29:20;5.30;;;4.57;;
12120;SDS011;6124;59.460;17.908;2022-09-24T03:32:07;5.33;;;4.83;;
12120;SDS011;6124;59.460;17.908;2022-09-24T03:34:33;5.93;;;5.33;;
12120;SDS011;6124;59.460;17.908;2022-09-24T03:37:00;8.60;;;5.60;;
12120;SDS011;6124;59.460;17.908;2022-09-24T03:39:28;5.90;;;5.30;;
12120;SDS011;6124;59.460;17.908;2022-09-24T03:41:55;6.20;;;5.60;;
12120;SDS011;6124;59.460;17.908;2022-09-24T03:44:23;6.33;;;5.13;;
12120;SDS011;6124;59.460;17.908;2022-09-24T03:46:51;8.20;;;6.27;;
12120;SDS011;6124;59.460;17.908;2022-09-24T03:49:18;6.03;;;5.43;;
12120;SDS011;6124;59.460;17.908;2022-09-24T03:51:47;6.20;;;5.03;;
12120;SDS011;6124;59.460;17.908;2022-09-24T03:54:15;5.37;;;4.87;;
12120;SDS011;6124;59.460;17.908;2022-09-24T03:56:42;7.63;;;5.63;;
12120;SDS011;6124;59.460;17.908;2022-09-24T03:59:09;5.33;;;4.83;;
12120;SDS011;6124;59.460;17.908;2022-09-24T04:01:38;5.70;;;5.10;;
12120;SDS011;6124;59.460;17.908;2022-09-24T04:04:05;6.70;;;6.10;;
12120;SDS011;6124;59.460;17.908;2022-09-24T04:06:32;6.27;;;5.67;;
12120;SDS011;6124;59.460;17.908;2022-09-24T04:09:00;8.00;;;5.80;;
12120;SDS011;6124;59.460;17.908;2022-09-24T04:11:27;8.07;;;5.63;;
12120;SDS011;6124;59.460;17.908;2022-09-24T04:13:54;5.83;;;5.23;;
12120;SDS011;6124;59.460;17.908;2022-09-24T04:16:23;5.77;;;5.17;;
12120;SDS011;6124;59.460;17.908;2022-09-24T04:18:52;5.80;;;4.93;;
12120;SDS011;6124;59.460;17.908;2022-09-24T04:21:19;7.17;;;6.47;;
12120;SDS011;6124;59.460;17.908;2022-09-24T04:23:47;6.00;;;5.40;;
12120;SDS011;6124;59.460;17.908;2022-09-24T04:26:14;6.67;;;5.67;;
12120;SDS011;6124;59.460;17.908;2022-09-24T04:28:41;6.73;;;5.20;;
12120;SDS011;6124;59.460;17.908;2022-09-24T04:31:08;5.20;;;4.57;;
12120;SDS011;6124;59.460;17.908;2022-09-24T04:33:36;5.37;;;4.87;;
12120;SDS011;6124;59.460;17.908;2022-09-24T04:36:04;5.27;;;4.77;;
12120;SDS011;6124;59.460;17.908;2022-09-24T04:38:31;5.50;;;5.00;;
12120;SDS011;6124;59.460;17.908;2022-09-24T04:41:03;5.23;;;4.83;;
12120;SDS011;6124;59.460;17.908;2022-09-24T04:43:30;5.93;;;5.27;;
12120;SDS011;6124;59.460;17.908;2022-09-24T04:45:58;6.07;;;5.47;;
12120;SDS011;6124;59.460;17.908;2022-09-24T04:48:26;5.90;;;4.77;;
12120;SDS011;6124;59.460;17.908;2022-09-24T04:50:53;5.23;;;4.73;;
12120;SDS011;6124;59.460;17.908;2022-09-24T04:53:22;4.87;;;4.33;;
12120;SDS011;6124;59.460;17.908;2022-09-24T04:55:50;5.10;;;4.67;;
12120;SDS011;6124;59.460;17.908;2022-09-24T04:58:17;5.33;;;4.83;;
12120;SDS011;6124;59.460;17.908;2022-09-24T05:00:45;5.73;;;5.13;;
12120;SDS011;6124;59.460;17.908;2022-09-24T05:03:12;7.60;;;5.13;;
12120;SDS011;6124;59.460;17.908;2022-09-24T05:05:40;6.50;;;5.30;;
12120;SDS011;6124;59.460;17.908;2022-09-24T05:08:07;8.80;;;5.50;;
12120;SDS011;6124;59.460;17.908;2022-09-24T05:10:35;5.73;;;5.10;;
12120;SDS011;6124;59.460;17.908;2022-09-24T05:13:03;6.07;;;4.80;;
12120;SDS011;6124;59.460;17.908;2022-09-24T05:15:30;5.87;;;5.33;;
12120;SDS011;6124;59.460;17.908;2022-09-24T05:17:57;6.20;;;5.30;;
12120;SDS011;6124;59.460;17.908;2022-09-24T05:20:25;7.50;;;5.60;;
12120;SDS011;6124;59.460;17.908;2022-09-24T05:22:52;5.50;;;5.00;;
12120;SDS011;6124;59.460;17.908;2022-09-24T05:25:20;6.10;;;5.40;;
12120;SDS011;6124;59.460;17.908;2022-09-24T05:27:49;6.77;;;5.37;;
12120;SDS011;6124;59.460;17.908;2022-09-24T05:30:16;5.70;;;5.10;;
12120;SDS011;6124;59.460;17.908;2022-09-24T05:32:44;5.73;;;5.13;;
12120;SDS011;6124;59.460;17.908;2022-09-24T05:35:13;5.10;;;4.60;;
12120;SDS011;6124;59.460;17.908;2022-09-24T05:37:40;7.20;;;5.23;;
12120;SDS011;6124;59.460;17.908;2022-09-24T05:40:08;5.80;;;5.20;;
12120;SDS011;6124;59.460;17.908;2022-09-24T05:42:59;8.40;;;5.73;;
12120;SDS011;6124;59.460;17.908;2022-09-24T05:45:27;5.50;;;5.00;;
12120;SDS011;6124;59.460;17.908;2022-09-24T05:47:54;6.00;;;5.40;;
12120;SDS011;6124;59.460;17.908;2022-09-24T05:50:21;5.53;;;4.90;;
12120;SDS011;6124;59.460;17.908;2022-09-24T05:52:48;5.60;;;5.10;;
12120;SDS011;6124;59.460;17.908;2022-09-24T05:55:16;5.57;;;4.73;;
12120;SDS011;6124;59.460;17.908;2022-09-24T05:57:43;5.80;;;5.00;;
12120;SDS011;6124;59.460;17.908;2022-09-24T06:00:12;5.30;;;4.87;;
12120;SDS011;6124;59.460;17.908;2022-09-24T06:02:39;5.03;;;4.57;;
12120;SDS011;6124;59.460;17.908;2022-09-24T06:05:07;4.87;;;4.33;;
12120;SDS011;6124;59.460;17.908;2022-09-24T06:07:34;5.23;;;4.50;;
12120;SDS011;6124;59.460;17.908;2022-09-24T06:10:02;5.87;;;5.10;;
12120;SDS011;6124;59.460;17.908;2022-09-24T06:12:31;5.47;;;4.97;;
12120;SDS011;6124;59.460;17.908;2022-09-24T06:14:59;6.10;;;5.07;;
12120;SDS011;6124;59.460;17.908;2022-09-24T06:17:27;5.83;;;4.80;;
12120;SDS011;6124;59.460;17.908;2022-09-24T06:19:56;6.53;;;5.07;;
12120;SDS011;6124;59.460;17.908;2022-09-24T06:22:23;5.50;;;5.00;;
12120;SDS011;6124;59.460;17.908;2022-09-24T06:24:50;6.07;;;4.90;;
12120;SDS011;6124;59.460;17.908;2022-09-24T06:27:18;6.17;;;5.57;;
12120;SDS011;6124;59.460;17.908;2022-09-24T06:29:45;7.83;;;5.70;;
12120;SDS011;6124;59.460;17.908;2022-09-24T06:32:12;7.00;;;6.40;;
12120;SDS011;6124;59.460;17.908;2022-09-24T06:34:41;6.30;;;5.10;;
12120;SDS011;6124;59.460;17.908;2022-09-24T06:37:08;5.70;;;5.20;;
12120;SDS011;6124;59.460;17.908;2022-09-24T06:39:35;5.50;;;5.00;;
12120;SDS011;6124;59.460;17.908;2022-09-24T06:42:03;5.20;;;4.70;;
12120;SDS011;6124;59.460;17.908;2022-09-24T06:44:31;6.03;;;4.90;;
12120;SDS011;6124;59.460;17.908;2022-09-24T06:46:58;5.53;;;4.83;;
12120;SDS011;6124;59.460;17.908;2022-09-24T06:49:26;5.17;;;4.67;;
12120;SDS011;6124;59.460;17.908;2022-09-24T06:51:55;6.57;;;5.77;;
12120;SDS011;6124;59.460;17.908;2022-09-24T06:54:22;4.97;;;4.50;;
12120;SDS011;6124;59.460;17.908;2022-09-24T06:56:49;5.77;;;4.83;;
12120;SDS011;6124;59.460;17.908;2022-09-24T06:59:17;7.77;;;6.17;;
12120;SDS011;6124;59.460;17.908;2022-09-24T07:01:44;6.47;;;5.20;;
12120;SDS011;6124;59.460;17.908;2022-09-24T07:04:11;8.37;;;6.10;;
12120;SDS011;6124;59.460;17.908;2022-09-24T07:06:39;8.03;;;5.23;;
12120;SDS011;6124;59.460;17.908;2022-09-24T07:09:25;5.70;;;4.70;;
12120;SDS011;6124;59.460;17.908;2022-09-24T07:11:52;5.40;;;4.90;;
12120;SDS011;6124;59.460;17.908;2022-09-24T07:14:21;6.23;;;5.10;;
12120;SDS011;6124;59.460;17.908;2022-09-24T07:16:48;5.00;;;4.50;;
12120;SDS011;6124;59.460;17.908;2022-09-24T07:19:16;6.43;;;4.70;;
12120;SDS011;6124;59.460;17.908;2022-09-24T07:21:43;6.47;;;4.70;;
12120;SDS011;6124;59.460;17.908;2022-09-24T07:24:10;5.50;;;4.80;;
12120;SDS011;6124;59.460;17.908;2022-09-24T07:26:39;5.07;;;4.67;;
12120;SDS011;6124;59.460;17.908;2022-09-24T07:29:06;5.57;;;5.07;;
12120;SDS011;6124;59.460;17.908;2022-09-24T07:31:33;6.67;;;5.87;;
12120;SDS011;6124;59.460;17.908;2022-09-24T07:34:01;7.23;;;6.20;;
12120;SDS011;6124;59.460;17.908;2022-09-24T07:36:28;7.90;;;6.03;;
12120;SDS011;6124;59.460;17.908;2022-09-24T07:38:56;5.97;;;5.27;;
12120;SDS011;6124;59.460;17.908;2022-09-24T07:41:24;6.33;;;5.00;;
12120;SDS011;6124;59.460;17.908;2022-09-24T07:43:52;6.13;;;5.53;;
12120;SDS011;6124;59.460;17.908;2022-09-24T07:46:21;7.17;;;5.83;;
12120;SDS011;6124;59.460;17.908;2022-09-24T07:48:49;5.83;;;5.23;;
12120;SDS011;6124;59.460;17.908;2022-09-24T07:51:20;5.37;;;4.87;;
12120;SDS011;6124;59.460;17.908;2022-09-24T07:53:47;6.87;;;5.27;;
12120;SDS011;6124;59.460;17.908;2022-09-24T07:56:15;6.37;;;5.47;;
12120;SDS011;6124;59.460;17.908;2022-09-24T07:58:42;6.90;;;5.73;;
12120;SDS011;6124;59.460;17.908;2022-09-24T08:01:10;6.93;;;5.20;;
12120;SDS011;6124;59.460;17.908;2022-09-24T08:03:38;6.50;;;5.40;;
12120;SDS011;6124;59.460;17.908;2022-09-24T08:06:05;6.00;;;5.00;;
12120;SDS011;6124;59.460;17.908;2022-09-24T08:08:33;5.90;;;5.30;;
12120;SDS011;6124;59.460;17.908;2022-09-24T08:11:01;7.70;;;5.33;;
12120;SDS011;6124;59.460;17.908;2022-09-24T08:13:29;6.57;;;4.53;;
12120;SDS011;6124;59.460;17.908;2022-09-24T08:15:56;5.23;;;4.40;;
12120;SDS011;6124;59.460;17.908;2022-09-24T08:18:26;10.73;;;5.43;;
12120;SDS011;6124;59.460;17.908;2022-09-24T08:20:53;5.90;;;4.40;;
12120;SDS011;6124;59.460;17.908;2022-09-24T08:23:20;5.13;;;4.20;;
12120;SDS011;6124;59.460;17.908;2022-09-24T08:25:48;6.70;;;4.80;;
12120;SDS011;6124;59.460;17.908;2022-09-24T08:28:15;4.87;;;4.37;;
12120;SDS011;6124;59.460;17.908;2022-09-24T08:30:43;4.63;;;4.10;;
12120;SDS011;6124;59.460;17.908;2022-09-24T08:33:11;7.23;;;3.80;;
12120;SDS011;6124;59.460;17.908;2022-09-24T08:35:40;5.00;;;3.47;;
12120;SDS011;6124;59.460;17.908;2022-09-24T08:38:08;7.57;;;3.70;;
12120;SDS011;6124;59.460;17.908;2022-09-24T08:40:36;6.33;;;3.40;;
12120;SDS011;6124;59.460;17.908;2022-09-24T08:43:07;5.37;;;3.20;;
12120;SDS011;6124;59.460;17.908;2022-09-24T08:45:38;4.87;;;3.10;;
12120;SDS011;6124;59.460;17.908;2022-09-24T08:48:24;5.20;;;3.20;;
12120;SDS011;6124;59.460;17.908;2022-09-24T08:50:57;6.23;;;3.03;;
12120;SDS011;6124;59.460;17.908;2022-09-24T08:53:27;4.03;;;3.17;;
12120;SDS011;6124;59.460;17.908;2022-09-24T08:55:57;7.13;;;3.10;;
12120;SDS011;6124;59.460;17.908;2022-09-24T08:58:30;7.37;;;2.90;;
12120;SDS011;6124;59.460;17.908;2022-09-24T09:00:59;5.40;;;2.70;;
12120;SDS011;6124;59.460;17.908;2022-09-24T09:03:29;4.80;;;2.80;;
12120;SDS011;6124;59.460;17.908;2022-09-24T09:06:03;6.47;;;2.80;;
12120;SDS011;6124;59.460;17.908;2022-09-24T09:08:33;7.90;;;2.77;;
12120;SDS011;6124;59.460;17.908;2022-09-24T09:11:03;5.13;;;2.80;;
12120;SDS011;6124;59.460;17.908;2022-09-24T09:13:34;4.10;;;2.70;;
12120;SDS011;6124;59.460;17.908;2022-09-24T09:16:04;3.70;;;2.53;;
12120;SDS011;6124;59.460;17.908;2022-09-24T09:18:33;4.07;;;2.10;;
12120;SDS011;6124;59.460;17.908;2022-09-24T09:21:05;7.33;;;2.63;;
12120;SDS011;6124;59.460;17.908;2022-09-24T09:23:36;5.63;;;2.67;;
12120;SDS011;6124;59.460;17.908;2022-09-24T09:26:04;4.13;;;2.50;;
12120;SDS011;6124;59.460;17.908;2022-09-24T09:28:32;3.27;;;2.37;;
12120;SDS011;6124;59.460;17.908;2022-09-24T09:31:00;4.57;;;2.50;;
12120;SDS011;6124;59.460;17.908;2022-09-24T09:33:36;5.00;;;2.60;;
12120;SDS011;6124;59.460;17.908;2022-09-24T09:36:09;5.17;;;2.43;;
12120;SDS011;6124;59.460;17.908;2022-09-24T09:38:42;4.27;;;2.40;;
12120;SDS011;6124;59.460;17.908;2022-09-24T09:41:15;4.73;;;2.40;;
12120;SDS011;6124;59.460;17.908;2022-09-24T09:43:43;4.53;;;2.40;;
12120;SDS011;6124;59.460;17.908;2022-09-24T09:46:11;3.77;;;2.33;;
12120;SDS011;6124;59.460;17.908;2022-09-24T09:48:43;6.73;;;2.63;;
12120;SDS011;6124;59.460;17.908;2022-09-24T09:51:14;3.73;;;2.63;;
12120;SDS011;6124;59.460;17.908;2022-09-24T09:53:52;4.10;;;2.30;;
12120;SDS011;6124;59.460;17.908;2022-09-24T09:56:21;5.00;;;2.50;;
12120;SDS011;6124;59.460;17.908;2022-09-24T09:58:49;4.47;;;2.23;;
12120;SDS011;6124;59.460;17.908;2022-09-24T10:01:19;5.63;;;2.03;;
12120;SDS011;6124;59.460;17.908;2022-09-24T10:03:57;2.60;;;1.80;;
12120;SDS011;6124;59.460;17.908;2022-09-24T10:06:31;2.37;;;1.97;;
12120;SDS011;6124;59.460;17.908;2022-09-24T10:09:05;3.20;;;2.13;;
12120;SDS011;6124;59.460;17.908;2022-09-24T10:11:33;4.87;;;1.93;;
12120;SDS011;6124;59.460;17.908;2022-09-24T10:14:01;3.20;;;2.00;;
12120;SDS011;6124;59.460;17.908;2022-09-24T10:16:28;3.20;;;1.90;;
12120;SDS011;6124;59.460;17.908;2022-09-24T10:18:55;2.30;;;1.80;;
12120;SDS011;6124;59.460;17.908;2022-09-24T10:21:29;6.30;;;2.00;;
12120;SDS011;6124;59.460;17.908;2022-09-24T10:24:00;3.57;;;2.00;;
12120;SDS011;6124;59.460;17.908;2022-09-24T10:26:34;3.30;;;1.90;;
12120;SDS011;6124;59.460;17.908;2022-09-24T10:29:01;3.53;;;1.80;;
12120;SDS011;6124;59.460;17.908;2022-09-24T10:31:47;4.97;;;1.90;;
12120;SDS011;6124;59.460;17.908;2022-09-24T10:34:18;3.40;;;2.10;;
12120;SDS011;6124;59.460;17.908;2022-09-24T10:36:50;2.37;;;1.77;;
12120;SDS011;6124;59.460;17.908;2022-09-24T10:39:19;4.43;;;2.17;;
12120;SDS011;6124;59.460;17.908;2022-09-24T10:41:47;3.60;;;2.00;;
12120;SDS011;6124;59.460;17.908;2022-09-24T10:44:15;3.30;;;1.70;;
12120;SDS011;6124;59.460;17.908;2022-09-24T10:46:49;4.67;;;2.10;;
12120;SDS011;6124;59.460;17.908;2022-09-24T10:49:25;3.77;;;2.03;;
12120;SDS011;6124;59.460;17.908;2022-09-24T10:51:58;5.33;;;2.20;;
12120;SDS011;6124;59.460;17.908;2022-09-24T10:54:37;2.33;;;1.67;;
12120;SDS011;6124;59.460;17.908;2022-09-24T10:57:11;5.10;;;2.10;;
12120;SDS011;6124;59.460;17.908;2022-09-24T10:59:47;3.17;;;1.83;;
12120;SDS011;6124;59.460;17.908;2022-09-24T11:02:26;2.97;;;1.93;;
12120;SDS011;6124;59.460;17.908;2022-09-24T11:05:00;3.17;;;2.10;;
12120;SDS011;6124;59.460;17.908;2022-09-24T11:07:37;4.50;;;1.80;;
12120;SDS011;6124;59.460;17.908;2022-09-24T11:10:13;3.07;;;1.83;;
12120;SDS011;6124;59.460;17.908;2022-09-24T11:12:43;5.60;;;2.10;;
12120;SDS011;6124;59.460;17.908;2022-09-24T11:15:20;2.70;;;1.80;;
12120;SDS011;6124;59.460;17.908;2022-09-24T11:17:57;2.73;;;2.20;;
12120;SDS011;6124;59.460;17.908;2022-09-24T11:20:32;4.43;;;2.27;;
12120;SDS011;6124;59.460;17.908;2022-09-24T11:23:20;3.63;;;2.13;;
12120;SDS011;6124;59.460;17.908;2022-09-24T11:25:55;5.13;;;2.20;;
12120;SDS011;6124;59.460;17.908;2022-09-24T11:28:29;5.10;;;2.10;;
12120;SDS011;6124;59.460;17.908;2022-09-24T11:31:06;4.40;;;2.20;;
12120;SDS011;6124;59.460;17.908;2022-09-24T11:33:44;4.53;;;2.03;;
12120;SDS011;6124;59.460;17.908;2022-09-24T11:36:22;2.63;;;1.87;;
12120;SDS011;6124;59.460;17.908;2022-09-24T11:38:57;4.80;;;2.00;;
12120;SDS011;6124;59.460;17.908;2022-09-24T11:41:31;3.93;;;2.20;;
12120;SDS011;6124;59.460;17.908;2022-09-24T11:46:49;4.03;;;1.80;;
12120;SDS011;6124;59.460;17.908;2022-09-24T11:49:27;2.23;;;1.73;;
12120;SDS011;6124;59.460;17.908;2022-09-24T11:51:57;3.93;;;1.90;;
12120;SDS011;6124;59.460;17.908;2022-09-24T11:54:27;3.17;;;1.80;;
12120;SDS011;6124;59.460;17.908;2022-09-24T11:56:59;2.73;;;1.83;;
12120;SDS011;6124;59.460;17.908;2022-09-24T11:59:33;3.50;;;1.90;;
12120;SDS011;6124;59.460;17.908;2022-09-24T12:02:03;3.77;;;1.70;;
12120;SDS011;6124;59.460;17.908;2022-09-24T12:04:39;3.97;;;1.90;;
12120;SDS011;6124;59.460;17.908;2022-09-24T12:07:09;2.17;;;1.47;;
12120;SDS011;6124;59.460;17.908;2022-09-24T12:09:38;3.67;;;1.40;;
12120;SDS011;6124;59.460;17.908;2022-09-24T12:12:09;4.40;;;1.83;;
12120;SDS011;6124;59.460;17.908;2022-09-24T12:14:41;3.33;;;1.50;;
12120;SDS011;6124;59.460;17.908;2022-09-24T12:17:13;1.67;;;1.57;;
12120;SDS011;6124;59.460;17.908;2022-09-24T12:19:46;2.37;;;1.50;;
12120;SDS011;6124;59.460;17.908;2022-09-24T12:22:14;3.33;;;1.57;;
12120;SDS011;6124;59.460;17.908;2022-09-24T12:24:43;2.50;;;1.70;;
12120;SDS011;6124;59.460;17.908;2022-09-24T12:27:14;2.90;;;1.60;;
12120;SDS011;6124;59.460;17.908;2022-09-24T12:29:44;3.80;;;1.40;;
12120;SDS011;6124;59.460;17.908;2022-09-24T12:32:31;2.80;;;1.40;;
12120;SDS011;6124;59.460;17.908;2022-09-24T12:35:22;2.43;;;1.50;;
12120;SDS011;6124;59.460;17.908;2022-09-24T12:37:52;3.30;;;1.80;;
12120;SDS011;6124;59.460;17.908;2022-09-24T12:40:27;3.83;;;1.50;;
12120;SDS011;6124;59.460;17.908;2022-09-24T12:42:58;1.57;;;1.47;;
12120;SDS011;6124;59.460;17.908;2022-09-24T12:45:27;3.00;;;1.50;;
12120;SDS011;6124;59.460;17.908;2022-09-24T12:47:55;2.67;;;1.60;;
12120;SDS011;6124;59.460;17.908;2022-09-24T12:50:25;3.00;;;1.60;;
12120;SDS011;6124;59.460;17.908;2022-09-24T12:52:52;2.23;;;1.40;;
12120;SDS011;6124;59.460;17.908;2022-09-24T12:55:21;3.03;;;1.63;;
12120;SDS011;6124;59.460;17.908;2022-09-24T12:57:49;2.63;;;1.80;;
12120;SDS011;6124;59.460;17.908;2022-09-24T13:00:35;2.37;;;1.50;;
12120;SDS011;6124;59.460;17.908;2022-09-24T13:03:03;2.00;;;1.50;;
12120;SDS011;6124;59.460;17.908;2022-09-24T13:05:32;3.77;;;1.80;;
12120;SDS011;6124;59.460;17.908;2022-09-24T13:08:00;3.90;;;1.77;;
12120;SDS011;6124;59.460;17.908;2022-09-24T13:10:28;3.27;;;1.73;;
12120;SDS011;6124;59.460;17.908;2022-09-24T13:12:56;3.67;;;1.60;;
12120;SDS011;6124;59.460;17.908;2022-09-24T13:15:29;2.27;;;1.60;;
12120;SDS011;6124;59.460;17.908;2022-09-24T13:18:12;2.53;;;1.70;;
12120;SDS011;6124;59.460;17.908;2022-09-24T13:20:44;4.10;;;1.77;;
12120;SDS011;6124;59.460;17.908;2022-09-24T13:23:28;1.67;;;1.43;;
12120;SDS011;6124;59.460;17.908;2022-09-24T13:25:57;2.00;;;1.67;;
12120;SDS011;6124;59.460;17.908;2022-09-24T13:28:28;4.90;;;1.57;;
12120;SDS011;6124;59.460;17.908;2022-09-24T13:30:57;3.20;;;1.60;;
12120;SDS011;6124;59.460;17.908;2022-09-24T13:33:30;1.83;;;1.53;;
12120;SDS011;6124;59.460;17.908;2022-09-24T13:36:01;3.40;;;1.73;;
12120;SDS011;6124;59.460;17.908;2022-09-24T13:38:30;2.27;;;1.50;;
12120;SDS011;6124;59.460;17.908;2022-09-24T13:41:01;3.57;;;1.73;;
12120;SDS011;6124;59.460;17.908;2022-09-24T13:43:32;3.30;;;1.70;;
12120;SDS011;6124;59.460;17.908;2022-09-24T13:46:02;3.90;;;1.60;;
12120;SDS011;6124;59.460;17.908;2022-09-24T13:48:34;4.20;;;1.57;;
12120;SDS011;6124;59.460;17.908;2022-09-24T13:51:02;4.37;;;1.73;;
12120;SDS011;6124;59.460;17.908;2022-09-24T13:53:32;3.40;;;1.80;;
12120;SDS011;6124;59.460;17.908;2022-09-24T13:56:03;3.67;;;1.50;;
12120;SDS011;6124;59.460;17.908;2022-09-24T13:58:32;3.00;;;1.50;;
12120;SDS011;6124;59.460;17.908;2022-09-24T14:00:59;3.27;;;1.60;;
12120;SDS011;6124;59.460;17.908;2022-09-24T14:03:28;1.73;;;1.63;;
12120;SDS011;6124;59.460;17.908;2022-09-24T14:05:58;4.67;;;1.60;;
12120;SDS011;6124;59.460;17.908;2022-09-24T14:08:25;2.13;;;1.67;;
12120;SDS011;6124;59.460;17.908;2022-09-24T14:11:02;2.87;;;1.60;;
12120;SDS011;6124;59.460;17.908;2022-09-24T14:13:32;3.37;;;1.70;;
12120;SDS011;6124;59.460;17.908;2022-09-24T14:16:06;2.40;;;1.73;;
12120;SDS011;6124;59.460;17.908;2022-09-24T14:18:34;4.20;;;1.73;;
12120;SDS011;6124;59.460;17.908;2022-09-24T14:21:03;3.00;;;1.60;;
12120;SDS011;6124;59.460;17.908;2022-09-24T14:23:35;2.00;;;1.63;;
12120;SDS011;6124;59.460;17.908;2022-09-24T14:26:03;2.27;;;1.87;;
12120;SDS011;6124;59.460;17.908;2022-09-24T14:28:31;1.93;;;1.60;;
12120;SDS011;6124;59.460;17.908;2022-09-24T14:30:59;3.33;;;1.80;;
12120;SDS011;6124;59.460;17.908;2022-09-24T14:33:28;3.57;;;1.20;;
12120;SDS011;6124;59.460;17.908;2022-09-24T14:35:57;2.13;;;1.70;;
12120;SDS011;6124;59.460;17.908;2022-09-24T14:38:27;2.00;;;1.50;;
12120;SDS011;6124;59.460;17.908;2022-09-24T14:40:57;3.77;;;1.90;;
12120;SDS011;6124;59.460;17.908;2022-09-24T14:43:26;4.63;;;1.73;;
12120;SDS011;6124;59.460;17.908;2022-09-24T14:45:59;4.50;;;2.00;;
12120;SDS011;6124;59.460;17.908;2022-09-24T14:48:28;2.87;;;1.70;;
12120;SDS011;6124;59.460;17.908;2022-09-24T14:50:56;2.23;;;1.60;;
12120;SDS011;6124;59.460;17.908;2022-09-24T14:53:24;3.00;;;1.60;;
12120;SDS011;6124;59.460;17.908;2022-09-24T14:55:54;2.80;;;1.60;;
12120;SDS011;6124;59.460;17.908;2022-09-24T14:58:30;1.83;;;1.60;;
12120;SDS011;6124;59.460;17.908;2022-09-24T15:00:59;2.97;;;1.70;;
12120;SDS011;6124;59.460;17.908;2022-09-24T15:03:28;1.80;;;1.60;;
12120;SDS011;6124;59.460;17.908;2022-09-24T15:06:03;2.40;;;1.47;;